Terminal Aerodrome Forecast
Issued by NWS

Home | Current Version | Previous Version | Text Only | Print | Product List | Glossary On
Versions: 1 2 3 4 5 6 7 8 9 10 11 12 13 14 15 16 17 18 19 20 21 22 23
000
FTUS43 KMQT 270520
TAFSAW
TAF
KSAW 270520Z 2706/2806 01013KT P6SM -SHSN BKN035
      TEMPO 2706/2709 4SM -SHSN BKN030
     FM271000 01009KT P6SM -SHSN BKN035
     FM271700 01009KT P6SM SCT030=

USA.gov is the U.S. government's official web portal to all federal, state and local government web resources and services.